createdAt,value
2019-03-23T00:00:08.525Z,22.33
2019-03-23T00:02:36.952Z,21.40
2019-03-23T00:05:07.811Z,23.40
2019-03-23T00:07:36.268Z,21.87
2019-03-23T00:10:05.931Z,23.30
2019-03-23T00:12:34.373Z,21.37
2019-03-23T00:15:03.329Z,23.30
2019-03-23T00:17:31.775Z,21.70
2019-03-23T00:20:00.323Z,23.80
2019-03-23T00:22:28.816Z,21.80
2019-03-23T00:24:57.241Z,22.50
2019-03-23T00:27:25.700Z,24.03
2019-03-23T00:29:54.194Z,25.67
2019-03-23T00:32:22.746Z,24.20
2019-03-23T00:34:51.253Z,23.93
2019-03-23T00:37:19.685Z,24.17
2019-03-23T00:39:48.112Z,23.30
2019-03-23T00:42:16.572Z,25.30
2019-03-23T00:44:45.017Z,25.23
2019-03-23T00:47:13.428Z,25.60
2019-03-23T00:49:41.876Z,27.07
2019-03-23T00:52:10.292Z,23.40
2019-03-23T00:54:38.723Z,23.60
2019-03-23T00:57:07.163Z,24.90
2019-03-23T00:59:35.609Z,24.13
2019-03-23T01:02:04.039Z,25.33
2019-03-23T01:04:32.556Z,22.70
2019-03-23T01:07:01.049Z,25.73
2019-03-23T01:09:32.457Z,24.37
2019-03-23T01:12:00.873Z,25.30
2019-03-23T01:14:29.297Z,25.53
2019-03-23T01:16:57.790Z,25.37
2019-03-23T01:19:26.249Z,26.10
2019-03-23T01:21:54.673Z,24.53
2019-03-23T01:24:23.110Z,24.17
2019-03-23T01:26:51.522Z,25.23
2019-03-23T01:29:19.954Z,25.27
2019-03-23T01:31:48.443Z,25.70
2019-03-23T01:34:16.881Z,24.07
2019-03-23T01:36:45.384Z,25.90
2019-03-23T01:39:13.821Z,25.70
2019-03-23T01:41:42.249Z,27.40
2019-03-23T01:44:10.681Z,24.13
2019-03-23T01:46:39.104Z,24.97
2019-03-23T01:49:07.532Z,25.50
2019-03-23T01:51:35.976Z,23.17
2019-03-23T01:54:04.466Z,25.20
2019-03-23T01:56:32.980Z,25.10
2019-03-23T01:59:01.425Z,23.30
2019-03-23T02:01:30.030Z,24.00
2019-03-23T02:03:58.505Z,23.73
2019-03-23T02:06:27.272Z,26.87
2019-03-23T02:08:55.678Z,25.13
2019-03-23T02:11:24.550Z,25.77
2019-03-23T02:13:52.964Z,25.90
2019-03-23T02:16:21.388Z,25.70
2019-03-23T02:18:49.805Z,25.30
2019-03-23T02:21:18.318Z,27.50
2019-03-23T02:23:46.813Z,24.50
2019-03-23T02:26:15.266Z,25.07
2019-03-23T02:28:43.755Z,27.00
2019-03-23T02:31:12.201Z,25.07
2019-03-23T02:33:40.611Z,25.40
2019-03-23T02:36:09.091Z,25.43
2019-03-23T02:38:37.544Z,24.87
2019-03-23T02:41:05.962Z,24.27
2019-03-23T02:43:34.390Z,24.57
2019-03-23T02:46:02.826Z,24.80
2019-03-23T02:48:31.315Z,23.97
2019-03-23T02:50:59.740Z,24.53
2019-03-23T02:53:28.177Z,23.40
2019-03-23T02:55:56.594Z,25.17
2019-03-23T02:58:25.058Z,25.40
2019-03-23T03:00:53.521Z,23.33
2019-03-23T03:03:21.960Z,22.90
2019-03-23T03:05:50.367Z,23.43
2019-03-23T03:08:18.876Z,24.00
2019-03-23T03:10:47.304Z,26.90
2019-03-23T03:13:15.816Z,24.73
2019-03-23T03:15:44.236Z,23.23
2019-03-23T03:18:12.675Z,24.00
2019-03-23T03:20:41.117Z,22.67
2019-03-23T03:23:09.550Z,23.90
2019-03-23T03:25:37.968Z,24.87
2019-03-23T03:28:06.483Z,24.63
2019-03-23T03:30:34.962Z,23.70
2019-03-23T03:33:03.522Z,24.70
2019-03-23T03:35:31.957Z,24.67
2019-03-23T03:38:00.457Z,23.10
2019-03-23T03:40:28.965Z,22.70
2019-03-23T03:42:58.113Z,24.00
2019-03-23T03:45:27.693Z,22.27
2019-03-23T03:47:56.663Z,21.67
2019-03-23T03:50:25.264Z,23.03
2019-03-23T03:52:53.649Z,23.93
2019-03-23T03:55:22.088Z,24.40
2019-03-23T03:57:50.497Z,24.67
2019-03-23T04:00:19.181Z,24.90
2019-03-23T04:02:47.589Z,24.47
2019-03-23T04:05:16.114Z,23.53
2019-03-23T04:07:44.581Z,22.57
2019-03-23T04:10:13.165Z,24.00
2019-03-23T04:12:41.581Z,24.47
2019-03-23T04:15:10.767Z,23.63
2019-03-23T04:17:39.167Z,23.20
2019-03-23T04:20:08.952Z,25.27
2019-03-23T04:22:37.466Z,23.50
2019-03-23T04:25:08.117Z,24.27
2019-03-23T04:27:36.928Z,24.83
2019-03-23T04:30:10.571Z,23.77
2019-03-23T04:32:39.062Z,24.20
2019-03-23T04:35:08.036Z,24.90
2019-03-23T04:37:36.452Z,22.80
2019-03-23T04:40:07.552Z,22.17
2019-03-23T04:42:35.987Z,23.77
2019-03-23T04:45:07.036Z,23.60
2019-03-23T04:47:35.470Z,24.53
2019-03-23T04:50:09.084Z,24.20
2019-03-23T04:52:37.530Z,24.23
2019-03-23T04:55:13.567Z,23.87
2019-03-23T04:57:42.127Z,23.20
2019-03-23T05:00:16.105Z,21.43
2019-03-23T05:02:44.732Z,23.60
2019-03-23T05:05:13.291Z,21.40
2019-03-23T05:07:42.092Z,22.47
2019-03-23T05:10:11.945Z,23.80
2019-03-23T05:12:40.545Z,23.60
2019-03-23T05:15:09.398Z,22.60
2019-03-23T05:17:37.908Z,23.43
2019-03-23T05:20:08.256Z,23.77
2019-03-23T05:22:36.704Z,24.20
2019-03-23T05:25:06.268Z,25.53
2019-03-23T05:27:34.704Z,24.60
2019-03-23T05:30:04.457Z,24.77
2019-03-23T05:32:32.918Z,24.03
2019-03-23T05:35:01.337Z,24.90
2019-03-23T05:37:29.844Z,23.50
2019-03-23T05:39:58.284Z,24.13
2019-03-23T05:42:26.740Z,24.07
2019-03-23T05:44:55.329Z,24.83
2019-03-23T05:47:23.762Z,24.17
2019-03-23T05:49:52.568Z,21.67
2019-03-23T05:52:21.153Z,24.60
2019-03-23T05:54:49.641Z,23.70
2019-03-23T05:57:19.881Z,23.47
2019-03-23T05:59:48.455Z,22.70
2019-03-23T06:02:16.920Z,22.83
2019-03-23T06:04:45.410Z,23.60
2019-03-23T06:07:13.844Z,23.10
2019-03-23T06:09:42.316Z,23.10
2019-03-23T06:12:10.760Z,23.67
2019-03-23T06:14:39.277Z,19.43
2019-03-23T06:17:07.689Z,23.93
2019-03-23T06:19:36.133Z,22.90
2019-03-23T06:22:04.640Z,24.60
2019-03-23T06:24:33.080Z,22.10
2019-03-23T06:27:01.502Z,22.83
2019-03-23T06:29:29.937Z,24.10
2019-03-23T06:31:58.454Z,24.43
2019-03-23T06:34:26.902Z,22.47
2019-03-23T06:36:55.384Z,23.77
2019-03-23T06:39:23.909Z,22.33
2019-03-23T06:41:52.905Z,24.60
2019-03-23T06:44:21.358Z,23.97
2019-03-23T06:46:49.817Z,24.10
2019-03-23T06:49:18.253Z,24.10
2019-03-23T06:51:46.694Z,23.77
2019-03-23T06:54:15.147Z,25.13
2019-03-23T06:56:43.674Z,23.57
2019-03-23T06:59:12.092Z,22.83
2019-03-23T07:01:40.549Z,22.83
2019-03-23T07:04:09.067Z,22.73
2019-03-23T07:06:37.518Z,22.40
2019-03-23T07:09:15.746Z,24.30
2019-03-23T07:11:36.471Z,22.50
2019-03-23T07:14:05.024Z,23.73
2019-03-23T07:16:33.475Z,23.37
2019-03-23T07:19:02.062Z,23.77
2019-03-23T07:21:30.484Z,24.47
2019-03-23T07:23:58.951Z,21.57
2019-03-23T07:26:27.604Z,22.93
2019-03-23T07:28:56.024Z,21.67
2019-03-23T07:31:24.691Z,23.53
2019-03-23T07:33:53.942Z,23.40
2019-03-23T07:36:22.365Z,21.57
2019-03-23T07:38:50.895Z,21.97
2019-03-23T07:41:19.329Z,19.90
2019-03-23T07:43:47.774Z,20.33
2019-03-23T07:46:16.205Z,21.77
2019-03-23T07:48:44.679Z,20.37
2019-03-23T07:51:13.100Z,20.53
2019-03-23T07:53:41.534Z,19.53
2019-03-23T07:56:09.971Z,19.50
2019-03-23T07:58:38.423Z,20.83
2019-03-23T08:01:06.846Z,20.20
2019-03-23T08:03:35.377Z,18.60
2019-03-23T08:06:03.850Z,20.57
2019-03-23T08:08:32.445Z,20.63
2019-03-23T08:11:00.947Z,20.93
2019-03-23T08:13:29.457Z,21.60
2019-03-23T08:15:57.997Z,21.40
2019-03-23T08:18:26.448Z,19.70
2019-03-23T08:20:54.905Z,20.37
2019-03-23T08:23:23.432Z,20.50
2019-03-23T08:25:51.882Z,20.83
2019-03-23T08:28:20.311Z,20.20
2019-03-23T08:30:48.762Z,20.23
2019-03-23T08:33:18.235Z,19.50
2019-03-23T08:35:46.727Z,20.57
2019-03-23T08:38:15.227Z,19.97
2019-03-23T08:40:43.727Z,20.37
2019-03-23T08:43:12.318Z,19.90
2019-03-23T08:45:40.854Z,20.30
2019-03-23T08:48:09.288Z,20.90
2019-03-23T08:50:37.733Z,19.60
2019-03-23T08:53:06.169Z,20.87
2019-03-23T08:55:34.609Z,20.47
2019-03-23T08:58:03.165Z,22.17
2019-03-23T09:00:31.696Z,21.43
2019-03-23T09:03:00.196Z,19.63
2019-03-23T09:05:28.870Z,20.47
2019-03-23T09:07:57.372Z,20.70
2019-03-23T09:10:25.910Z,18.80
2019-03-23T09:12:54.422Z,20.60
2019-03-23T09:15:22.938Z,22.03
2019-03-23T09:17:51.346Z,20.37
2019-03-23T09:20:19.948Z,20.37
2019-03-23T09:22:48.480Z,22.27
2019-03-23T09:25:16.904Z,21.27
2019-03-23T09:27:45.355Z,21.40
2019-03-23T09:30:14.330Z,20.80
2019-03-23T09:32:42.834Z,21.63
2019-03-23T09:35:11.505Z,21.73
2019-03-23T09:37:39.976Z,22.60
2019-03-23T09:40:11.173Z,21.73
2019-03-23T09:42:38.904Z,23.83
2019-03-23T09:45:08.284Z,22.27
2019-03-23T09:47:37.059Z,23.13
2019-03-23T09:50:07.624Z,24.20
2019-03-23T09:52:36.071Z,24.57
2019-03-23T09:55:06.105Z,24.57
2019-03-23T09:57:34.586Z,23.30
2019-03-23T10:00:04.922Z,24.90
2019-03-23T10:02:33.386Z,25.57
2019-03-23T10:05:01.800Z,24.80
2019-03-23T10:07:30.247Z,24.90
2019-03-23T10:09:58.677Z,25.60
2019-03-23T10:12:27.156Z,27.60
2019-03-23T10:14:55.577Z,24.40
2019-03-23T10:17:24.012Z,25.47
2019-03-23T10:19:52.454Z,25.00
2019-03-23T10:22:21.021Z,27.60
2019-03-23T10:24:49.486Z,26.10
2019-03-23T10:27:17.916Z,29.30
2019-03-23T10:29:46.376Z,26.67
2019-03-23T10:32:14.798Z,27.60
2019-03-23T10:34:43.251Z,29.17
2019-03-23T10:37:11.690Z,27.60
2019-03-23T10:39:40.157Z,28.83
2019-03-23T10:42:08.629Z,28.80
2019-03-23T10:44:37.129Z,27.50
2019-03-23T10:47:05.715Z,25.90
2019-03-23T10:49:34.150Z,26.93
2019-03-23T10:52:02.588Z,27.20
2019-03-23T10:54:31.041Z,26.17
2019-03-23T10:56:59.545Z,26.40
2019-03-23T10:59:28.130Z,25.00
2019-03-23T11:01:56.626Z,24.20
2019-03-23T11:04:25.138Z,24.27
2019-03-23T11:06:53.552Z,26.70
2019-03-23T11:09:22.061Z,26.60
2019-03-23T11:11:50.500Z,26.33
2019-03-23T11:14:18.989Z,26.40
2019-03-23T11:16:47.408Z,26.53
2019-03-23T11:19:15.853Z,26.70
2019-03-23T11:21:44.333Z,23.20
2019-03-23T11:24:12.774Z,24.57
2019-03-23T11:26:41.301Z,26.47
2019-03-23T11:29:09.723Z,26.70
2019-03-23T11:31:38.192Z,28.10
2019-03-23T11:34:06.685Z,30.90
2019-03-23T11:36:35.190Z,28.77
2019-03-23T11:39:05.184Z,26.20
2019-03-23T11:41:33.642Z,26.53
2019-03-23T11:44:02.187Z,27.70
2019-03-23T11:46:30.636Z,27.17
2019-03-23T11:48:59.060Z,27.47
2019-03-23T11:51:27.574Z,24.50
2019-03-23T11:53:56.025Z,27.70
2019-03-23T11:56:24.490Z,26.73
2019-03-23T11:58:53.979Z,26.70
2019-03-23T12:01:22.626Z,26.60
2019-03-23T12:03:51.089Z,25.53
2019-03-23T12:06:19.530Z,27.40
2019-03-23T12:08:47.978Z,28.60
2019-03-23T12:11:16.445Z,27.03
2019-03-23T12:13:44.860Z,27.77
2019-03-23T12:16:13.285Z,26.07
2019-03-23T12:18:41.763Z,25.53
2019-03-23T12:21:10.215Z,28.53
2019-03-23T12:23:38.775Z,25.93
2019-03-23T12:26:07.211Z,27.43
2019-03-23T12:28:35.713Z,27.70
2019-03-23T12:31:04.296Z,27.73
2019-03-23T12:33:32.763Z,26.67
2019-03-23T12:36:01.206Z,26.37
2019-03-23T12:38:29.638Z,27.73
2019-03-23T12:40:58.095Z,26.80
2019-03-23T12:43:26.597Z,25.03
2019-03-23T12:45:55.025Z,25.80
2019-03-23T12:48:23.483Z,25.50
2019-03-23T12:50:51.974Z,26.27
2019-03-23T12:53:20.410Z,25.67
2019-03-23T12:55:48.993Z,27.40
2019-03-23T12:58:17.408Z,26.97
2019-03-23T13:00:45.860Z,27.77
2019-03-23T13:03:14.287Z,27.83
2019-03-23T13:05:42.790Z,28.20
2019-03-23T13:08:11.268Z,25.23
2019-03-23T13:10:39.711Z,27.63
2019-03-23T13:13:08.132Z,26.37
2019-03-23T13:15:36.571Z,26.80
2019-03-23T13:18:05.081Z,25.37
2019-03-23T13:23:01.957Z,27.27
2019-03-23T13:25:30.503Z,24.50
2019-03-23T13:27:59.016Z,25.30
2019-03-23T13:30:27.525Z,27.40
2019-03-23T13:32:55.965Z,27.33
2019-03-23T13:35:24.419Z,25.57
2019-03-23T13:37:54.503Z,25.67
2019-03-23T13:40:23.167Z,26.03
2019-03-23T13:42:51.609Z,25.47
2019-03-23T13:45:20.080Z,25.33
2019-03-23T13:47:48.506Z,25.30
2019-03-23T13:50:20.025Z,23.87
2019-03-23T13:52:57.668Z,23.90
2019-03-23T13:55:33.939Z,24.07
2019-03-23T13:58:12.711Z,25.90
2019-03-23T14:00:41.447Z,27.60
2019-03-23T14:03:10.138Z,26.47
2019-03-23T14:05:38.596Z,25.60
2019-03-23T14:08:07.133Z,25.70
2019-03-23T14:10:35.577Z,25.47
2019-03-23T14:13:04.097Z,28.13
2019-03-23T14:15:32.586Z,27.77
2019-03-23T14:18:01.098Z,30.77
2019-03-23T14:20:29.545Z,26.83
2019-03-23T14:23:02.680Z,26.50
2019-03-23T14:25:28.144Z,27.63
2019-03-23T14:27:56.608Z,27.00
2019-03-23T14:30:25.139Z,28.03
2019-03-23T14:32:53.654Z,26.83
2019-03-23T14:35:22.149Z,26.30
2019-03-23T14:37:50.621Z,29.27
2019-03-23T14:40:19.026Z,25.33
2019-03-23T14:42:47.552Z,26.77
2019-03-23T14:45:15.963Z,27.93
2019-03-23T14:47:44.405Z,27.30
2019-03-23T14:50:12.985Z,25.90
2019-03-23T14:52:41.439Z,26.70
2019-03-23T14:55:10.185Z,28.43
2019-03-23T14:57:40.460Z,25.43
2019-03-23T15:00:10.238Z,27.80
2019-03-23T15:02:38.765Z,28.23
2019-03-23T15:05:08.114Z,26.60
2019-03-23T15:07:36.613Z,27.97
2019-03-23T15:10:09.396Z,25.73
2019-03-23T15:12:37.804Z,27.23
2019-03-23T15:15:07.639Z,25.10
2019-03-23T15:17:36.069Z,25.90
2019-03-23T15:20:05.942Z,25.83
2019-03-23T15:22:34.368Z,25.67
2019-03-23T15:25:02.976Z,27.07
2019-03-23T15:27:31.430Z,24.97
2019-03-23T15:29:59.963Z,26.40
2019-03-23T15:32:28.404Z,27.23
2019-03-23T15:34:56.880Z,27.87
2019-03-23T15:37:25.294Z,25.23
2019-03-23T15:39:53.760Z,28.63
2019-03-23T15:42:24.931Z,24.20
2019-03-23T15:44:52.321Z,26.80
2019-03-23T15:47:20.840Z,27.00
2019-03-23T15:49:49.261Z,28.60
2019-03-23T15:52:17.724Z,26.70
2019-03-23T15:54:46.131Z,25.90
2019-03-23T15:57:15.741Z,27.23
2019-03-23T15:59:44.166Z,26.37
2019-03-23T16:02:12.752Z,27.10
2019-03-23T16:04:41.200Z,26.80
2019-03-23T16:07:09.628Z,27.57
2019-03-23T16:09:38.069Z,26.70
2019-03-23T16:12:06.531Z,24.60
2019-03-23T16:14:34.929Z,26.43
2019-03-23T16:17:03.412Z,27.60
2019-03-23T16:19:31.833Z,27.67
2019-03-23T16:22:00.308Z,26.57
2019-03-23T16:24:28.735Z,26.50
2019-03-23T16:26:57.178Z,26.57
2019-03-23T16:29:25.594Z,26.50
2019-03-23T16:31:54.077Z,26.30
2019-03-23T16:34:22.497Z,26.63
2019-03-23T16:36:50.953Z,28.50
2019-03-23T16:39:19.380Z,25.47
2019-03-23T16:41:47.890Z,27.63
2019-03-23T16:44:16.452Z,27.03
2019-03-23T16:46:44.897Z,27.67
2019-03-23T16:49:13.363Z,26.17
2019-03-23T16:51:41.797Z,27.47
2019-03-23T16:54:10.307Z,27.17
2019-03-23T16:56:38.729Z,25.70
2019-03-23T16:59:07.194Z,27.30
2019-03-23T17:01:35.627Z,29.10
2019-03-23T17:04:04.221Z,27.50
2019-03-23T17:06:32.652Z,26.47
2019-03-23T17:09:01.147Z,28.97
2019-03-23T17:11:29.619Z,28.80
2019-03-23T17:13:58.136Z,27.90
2019-03-23T17:16:26.561Z,27.90
2019-03-23T17:18:55.012Z,27.90
2019-03-23T17:21:23.427Z,26.43
2019-03-23T17:23:51.861Z,26.90
2019-03-23T17:26:20.324Z,29.10
2019-03-23T17:28:48.751Z,27.50
2019-03-23T17:31:17.268Z,27.27
2019-03-23T17:33:45.721Z,24.90
2019-03-23T17:36:14.211Z,26.57
2019-03-23T17:38:42.662Z,25.67
2019-03-23T17:41:11.109Z,24.70
2019-03-23T17:43:40.890Z,27.83
2019-03-23T17:46:09.475Z,25.20
2019-03-23T17:48:37.906Z,29.40
2019-03-23T17:51:07.105Z,27.17
2019-03-23T17:53:35.842Z,30.03
2019-03-23T17:56:06.327Z,30.13
2019-03-23T17:58:34.589Z,32.53
2019-03-23T18:01:03.502Z,31.07
2019-03-23T18:03:31.958Z,33.60
2019-03-23T18:06:00.427Z,34.10
2019-03-23T18:08:28.946Z,40.93
2019-03-23T18:10:57.482Z,40.37
2019-03-23T18:13:26.017Z,36.80
2019-03-23T18:15:54.480Z,35.87
2019-03-23T18:18:24.455Z,33.93
2019-03-23T18:20:52.913Z,34.33
2019-03-23T18:23:21.429Z,30.87
2019-03-23T18:25:49.941Z,33.13
2019-03-23T18:28:18.388Z,32.83
2019-03-23T18:30:46.905Z,35.00
2019-03-23T18:33:15.409Z,34.80
2019-03-23T18:35:44.011Z,34.00
2019-03-23T18:38:12.519Z,32.40
2019-03-23T18:40:41.106Z,29.40
2019-03-23T18:43:09.688Z,31.67
2019-03-23T18:45:38.215Z,32.50
2019-03-23T18:48:06.810Z,30.37
2019-03-23T18:50:35.266Z,31.83
2019-03-23T18:53:03.873Z,28.50
2019-03-23T18:55:32.438Z,30.80
2019-03-23T18:58:00.924Z,31.90
2019-03-23T19:00:36.925Z,30.40
2019-03-23T19:03:05.463Z,32.33
2019-03-23T19:05:33.886Z,31.57
2019-03-23T19:08:02.410Z,33.60
2019-03-23T19:10:30.835Z,31.33
2019-03-23T19:12:59.460Z,33.00
2019-03-23T19:15:27.901Z,33.87
2019-03-23T19:17:56.365Z,32.43
2019-03-23T19:20:24.806Z,33.60
2019-03-23T19:22:53.268Z,33.20
2019-03-23T19:25:21.789Z,32.50
2019-03-23T19:27:50.326Z,34.70
2019-03-23T19:30:18.878Z,30.40
2019-03-23T19:32:47.334Z,31.80
2019-03-23T19:35:15.813Z,32.47
2019-03-23T19:37:44.418Z,33.13
2019-03-23T19:40:13.068Z,31.70
2019-03-23T19:42:41.505Z,34.43
2019-03-23T19:45:10.158Z,34.83
2019-03-23T19:47:38.711Z,32.80
2019-03-23T19:50:08.251Z,35.20
2019-03-23T19:52:36.727Z,32.73
2019-03-23T19:55:07.426Z,32.80
2019-03-23T19:57:35.851Z,35.37
2019-03-23T20:00:09.628Z,35.43
2019-03-23T20:02:38.262Z,33.97
2019-03-23T20:05:07.043Z,34.33
2019-03-23T20:07:35.853Z,34.57
2019-03-23T20:10:08.583Z,33.87
2019-03-23T20:12:37.157Z,36.77
2019-03-23T20:15:08.363Z,34.47
2019-03-23T20:17:36.926Z,35.20
2019-03-23T20:20:07.407Z,34.80
2019-03-23T20:22:35.884Z,35.50
2019-03-23T20:25:06.006Z,36.70
2019-03-23T20:27:34.473Z,34.70
2019-03-23T20:30:04.051Z,32.03
2019-03-23T20:32:32.547Z,34.77
2019-03-23T20:35:00.999Z,32.77
2019-03-23T20:37:29.581Z,32.23
2019-03-23T20:39:58.150Z,34.87
2019-03-23T20:42:26.776Z,35.47
2019-03-23T20:44:55.217Z,34.47
2019-03-23T20:47:23.659Z,33.70
2019-03-23T20:49:53.370Z,32.50
2019-03-23T20:52:21.881Z,34.27
2019-03-23T20:54:50.316Z,35.17
2019-03-23T20:57:23.975Z,37.37
2019-03-23T20:59:48.934Z,33.80
2019-03-23T21:02:17.375Z,36.03
2019-03-23T21:04:45.826Z,33.20
2019-03-23T21:07:14.299Z,33.57
2019-03-23T21:09:42.832Z,36.83
2019-03-23T21:12:11.418Z,35.53
2019-03-23T21:14:39.965Z,36.33
2019-03-23T21:17:08.427Z,34.10
2019-03-23T21:19:36.930Z,35.40
2019-03-23T21:22:05.595Z,36.43
2019-03-23T21:24:34.161Z,34.77
2019-03-23T21:27:02.637Z,35.60
2019-03-23T21:29:31.123Z,32.73
2019-03-23T21:31:59.554Z,36.00
2019-03-23T21:34:27.988Z,35.40
2019-03-23T21:36:56.508Z,35.73
2019-03-23T21:39:24.952Z,36.63
2019-03-23T21:41:53.396Z,37.43
2019-03-23T21:44:30.650Z,35.50
2019-03-23T21:46:52.009Z,36.93
2019-03-23T21:49:20.434Z,39.37
2019-03-23T21:51:48.968Z,39.83
2019-03-23T21:54:17.420Z,38.10
2019-03-23T21:56:45.954Z,37.60
2019-03-23T21:59:14.398Z,39.73
2019-03-23T22:01:42.816Z,37.90
2019-03-23T22:04:11.278Z,38.67
2019-03-23T22:06:39.709Z,40.43
2019-03-23T22:09:08.252Z,39.40
2019-03-23T22:11:36.814Z,41.10
2019-03-23T22:14:05.365Z,37.60
2019-03-23T22:16:33.942Z,36.10
2019-03-23T22:19:02.467Z,37.93
2019-03-23T22:21:30.950Z,39.00
2019-03-23T22:23:59.437Z,38.00
2019-03-23T22:26:27.913Z,39.37
2019-03-23T22:28:56.368Z,40.20
2019-03-23T22:31:24.790Z,37.30
2019-03-23T22:33:53.241Z,38.70
2019-03-23T22:36:21.741Z,40.20
2019-03-23T22:38:50.206Z,40.07
2019-03-23T22:41:18.634Z,39.17
2019-03-23T22:43:47.124Z,41.77
2019-03-23T22:46:15.561Z,42.20
2019-03-23T22:48:44.050Z,41.30
2019-03-23T22:51:12.543Z,40.77
2019-03-23T22:53:40.963Z,39.80
2019-03-23T22:56:09.399Z,40.43
2019-03-23T22:58:37.837Z,41.63
2019-03-23T23:01:06.428Z,43.80
2019-03-23T23:03:34.939Z,43.73
2019-03-23T23:06:03.442Z,44.50
2019-03-23T23:08:31.902Z,42.67
2019-03-23T23:11:00.395Z,43.73
2019-03-23T23:13:28.814Z,47.23
2019-03-23T23:15:57.353Z,44.57
2019-03-23T23:18:25.773Z,47.47
2019-03-23T23:20:54.236Z,46.70
2019-03-23T23:23:22.681Z,46.43
2019-03-23T23:25:51.133Z,48.57
2019-03-23T23:28:19.574Z,48.93
2019-03-23T23:30:48.040Z,50.00
2019-03-23T23:33:16.448Z,46.97
2019-03-23T23:35:44.892Z,51.30
2019-03-23T23:38:13.358Z,48.10
2019-03-23T23:40:41.803Z,50.73
2019-03-23T23:43:10.225Z,48.37
2019-03-23T23:45:38.769Z,48.93
2019-03-23T23:48:07.270Z,49.97
2019-03-23T23:50:35.700Z,49.10
2019-03-23T23:53:04.228Z,47.97
2019-03-23T23:55:32.752Z,47.47
2019-03-23T23:58:01.254Z,48.13
